createdAt,value
2023-03-17T00:00:44.463Z,95944.00
2023-03-17T00:01:43.485Z,95948.00
2023-03-17T00:02:43.584Z,95946.00
2023-03-17T00:03:43.609Z,95944.00
2023-03-17T00:04:43.645Z,95943.00
2023-03-17T00:05:44.688Z,95944.00
2023-03-17T00:06:43.728Z,95941.00
2023-03-17T00:07:44.762Z,95941.00
2023-03-17T00:08:44.808Z,95941.00
2023-03-17T00:09:44.868Z,95939.00
2023-03-17T00:10:44.996Z,95937.00
2023-03-17T00:11:44.950Z,95939.00
2023-03-17T00:12:45.008Z,95941.00
2023-03-17T00:13:45.045Z,95941.00
2023-03-17T00:14:45.094Z,95943.00
2023-03-17T00:15:44.146Z,95939.00
2023-03-17T00:16:44.197Z,95939.00
2023-03-17T00:17:45.230Z,95937.00
2023-03-17T00:18:45.271Z,95935.00
2023-03-17T00:19:44.315Z,95933.00
2023-03-17T00:20:45.368Z,95935.00
2023-03-17T00:21:45.415Z,95933.00
2023-03-17T00:22:45.488Z,95935.00
2023-03-17T00:23:45.523Z,95931.00
2023-03-17T00:24:45.587Z,95931.00
2023-03-17T00:25:44.620Z,95929.00
2023-03-17T00:26:44.712Z,95929.00
2023-03-17T00:27:45.704Z,95931.00
2023-03-17T00:28:44.766Z,95931.00
2023-03-17T00:29:45.812Z,95929.00
2023-03-17T00:30:44.869Z,95929.00
2023-03-17T00:31:45.965Z,95919.00
2023-03-17T00:32:46.009Z,95915.00
2023-03-17T00:33:46.014Z,95917.00
2023-03-17T00:34:46.085Z,95917.00
2023-03-17T00:35:46.170Z,95917.00
2023-03-17T00:36:46.178Z,95911.00
2023-03-17T00:37:46.215Z,95913.00
2023-03-17T00:38:46.306Z,95907.00
2023-03-17T00:39:46.328Z,95909.00
2023-03-17T00:40:46.367Z,95911.00
2023-03-17T00:41:49.479Z,95909.00
2023-03-17T00:42:46.422Z,95911.00
2023-03-17T00:43:46.432Z,95907.00
2023-03-17T00:44:46.430Z,95909.00
2023-03-17T00:45:46.386Z,95905.00
2023-03-17T00:46:46.695Z,95903.00
2023-03-17T00:47:46.384Z,95901.00
2023-03-17T00:48:46.385Z,95895.00
2023-03-17T00:49:46.380Z,95895.00
2023-03-17T00:50:46.363Z,95895.00
2023-03-17T00:51:46.362Z,95895.00
2023-03-17T00:52:46.377Z,95897.00
2023-03-17T00:53:46.343Z,95897.00
2023-03-17T00:54:46.351Z,95897.00
2023-03-17T00:55:46.334Z,95897.00
2023-03-17T00:56:45.322Z,95897.00
2023-03-17T00:57:46.337Z,95899.00
2023-03-17T00:58:45.295Z,95895.00
2023-03-17T00:59:45.296Z,95893.00
2023-03-17T01:00:46.320Z,95893.00
2023-03-17T01:01:45.296Z,95890.00
2023-03-17T01:02:46.275Z,95891.00
2023-03-17T01:03:46.254Z,95890.00
2023-03-17T01:04:52.922Z,95888.00
2023-03-17T01:05:46.254Z,95888.00
2023-03-17T01:06:46.244Z,95886.00
2023-03-17T01:07:46.241Z,95886.00
2023-03-17T01:08:46.272Z,95882.00
2023-03-17T01:09:46.227Z,95878.00
2023-03-17T01:10:46.220Z,95878.00
2023-03-17T01:11:46.231Z,95876.00
2023-03-17T01:12:46.288Z,95874.00
2023-03-17T01:13:46.223Z,95876.00
2023-03-17T01:14:46.195Z,95874.00
2023-03-17T01:15:46.182Z,95872.00
2023-03-17T01:16:46.281Z,95872.00
2023-03-17T01:17:46.166Z,95868.00
2023-03-17T01:18:45.219Z,95866.00
2023-03-17T01:19:45.152Z,95866.00
2023-03-17T01:20:46.148Z,95860.00
2023-03-17T01:21:46.159Z,95862.00
2023-03-17T01:22:46.148Z,95862.00
2023-03-17T01:23:46.123Z,95858.00
2023-03-17T01:24:45.117Z,95858.00
2023-03-17T01:25:46.124Z,95860.00
2023-03-17T01:26:46.112Z,95858.00
2023-03-17T01:27:46.123Z,95852.00
2023-03-17T01:28:46.127Z,95852.00
2023-03-17T01:29:46.125Z,95852.00
2023-03-17T01:30:46.155Z,95854.00
2023-03-17T01:31:46.346Z,95856.00
2023-03-17T01:32:46.331Z,95856.00
2023-03-17T01:33:46.370Z,95856.00
2023-03-17T01:34:46.437Z,95854.00
2023-03-17T01:35:46.559Z,95856.00
2023-03-17T01:36:46.504Z,95856.00
2023-03-17T01:37:46.565Z,95858.00
2023-03-17T01:38:46.633Z,95854.00
2023-03-17T01:39:45.673Z,95854.00
2023-03-17T01:40:46.743Z,95854.00
2023-03-17T01:41:46.801Z,95852.00
2023-03-17T01:42:46.873Z,95850.00
2023-03-17T01:43:46.937Z,95848.00
2023-03-17T01:44:46.983Z,95850.00
2023-03-17T01:45:47.162Z,95854.00
2023-03-17T01:46:47.121Z,95852.00
2023-03-17T01:47:47.160Z,95852.00
2023-03-17T01:48:47.233Z,95852.00
2023-03-17T01:49:47.291Z,95852.00
2023-03-17T01:50:46.359Z,95850.00
2023-03-17T01:51:47.417Z,95850.00
2023-03-17T01:52:47.475Z,95850.00
2023-03-17T01:53:46.516Z,95854.00
2023-03-17T01:54:47.612Z,95852.00
2023-03-17T01:55:46.642Z,95848.00
2023-03-17T01:56:46.728Z,95852.00
2023-03-17T01:57:46.775Z,95850.00
2023-03-17T01:58:47.832Z,95852.00
2023-03-17T01:59:47.920Z,95848.00
2023-03-17T02:00:48.081Z,95850.00
2023-03-17T02:01:48.051Z,95852.00
2023-03-17T02:02:48.083Z,95854.00
2023-03-17T02:03:48.295Z,95854.00
2023-03-17T02:04:48.234Z,95850.00
2023-03-17T02:05:48.291Z,95854.00
2023-03-17T02:06:57.504Z,95852.00
2023-03-17T02:07:48.319Z,95852.00
2023-03-17T02:08:48.319Z,95846.00
2023-03-17T02:09:48.309Z,95846.00
2023-03-17T02:10:48.322Z,95843.00
2023-03-17T02:11:48.306Z,95841.00
2023-03-17T02:12:48.333Z,95841.00
2023-03-17T02:13:48.274Z,95837.00
2023-03-17T02:14:48.287Z,95835.00
2023-03-17T02:15:48.277Z,95833.00
2023-03-17T02:16:48.318Z,95833.00
2023-03-17T02:17:48.297Z,95835.00
2023-03-17T02:18:48.284Z,95831.00
2023-03-17T02:19:48.246Z,95831.00
2023-03-17T02:20:47.254Z,95831.00
2023-03-17T02:21:48.229Z,95831.00
2023-03-17T02:22:47.211Z,95831.00
2023-03-17T02:23:48.266Z,95831.00
2023-03-17T02:24:48.232Z,95831.00
2023-03-17T02:25:48.189Z,95827.00
2023-03-17T02:26:47.208Z,95827.00
2023-03-17T02:27:48.179Z,95829.00
2023-03-17T02:28:48.162Z,95825.00
2023-03-17T02:29:48.161Z,95827.00
2023-03-17T02:30:48.197Z,95825.00
2023-03-17T02:31:48.169Z,95825.00
2023-03-17T02:32:48.168Z,95827.00
2023-03-17T02:33:48.199Z,95829.00
2023-03-17T02:34:48.136Z,95825.00
2023-03-17T02:35:48.210Z,95823.00
2023-03-17T02:36:48.311Z,95827.00
2023-03-17T02:37:48.278Z,95827.00
2023-03-17T02:38:48.300Z,95829.00
2023-03-17T02:39:48.345Z,95831.00
2023-03-17T02:40:48.352Z,95831.00
2023-03-17T02:41:48.422Z,95831.00
2023-03-17T02:42:48.462Z,95829.00
2023-03-17T02:43:48.458Z,95829.00
2023-03-17T02:44:48.500Z,95831.00
2023-03-17T02:45:48.554Z,95831.00
2023-03-17T02:46:48.575Z,95831.00
2023-03-17T02:47:48.581Z,95833.00
2023-03-17T02:48:48.696Z,95829.00
2023-03-17T02:49:48.674Z,95831.00
2023-03-17T02:50:47.663Z,95829.00
2023-03-17T02:51:48.733Z,95825.00
2023-03-17T02:52:48.725Z,95823.00
2023-03-17T02:53:48.750Z,95823.00
2023-03-17T02:54:48.781Z,95825.00
2023-03-17T02:55:48.777Z,95827.00
2023-03-17T02:56:48.839Z,95827.00
2023-03-17T02:57:48.873Z,95825.00
2023-03-17T02:58:48.935Z,95821.00
2023-03-17T02:59:49.001Z,95819.00
2023-03-17T03:00:49.016Z,95815.00
2023-03-17T03:01:49.010Z,95815.00
2023-03-17T03:02:49.105Z,95817.00
2023-03-17T03:03:49.048Z,95817.00
2023-03-17T03:04:49.056Z,95817.00
2023-03-17T03:05:48.106Z,95817.00
2023-03-17T03:06:49.119Z,95817.00
2023-03-17T03:07:48.114Z,95813.00
2023-03-17T03:08:48.127Z,95813.00
2023-03-17T03:09:49.141Z,95815.00
2023-03-17T03:10:48.172Z,95817.00
2023-03-17T03:11:49.190Z,95815.00
2023-03-17T03:12:49.347Z,95815.00
2023-03-17T03:13:49.208Z,95811.00
2023-03-17T03:14:49.246Z,95809.00
2023-03-17T03:15:48.295Z,95801.00
2023-03-17T03:16:49.286Z,95801.00
2023-03-17T03:17:49.328Z,95799.00
2023-03-17T03:18:48.328Z,95799.00
2023-03-17T03:19:49.354Z,95799.00
2023-03-17T03:20:49.386Z,95801.00
2023-03-17T03:21:49.448Z,95801.00
2023-03-17T03:22:49.425Z,95797.00
2023-03-17T03:23:48.436Z,95799.00
2023-03-17T03:24:49.451Z,95801.00
2023-03-17T03:25:49.490Z,95801.00
2023-03-17T03:26:49.554Z,95801.00
2023-03-17T03:27:49.567Z,95801.00
2023-03-17T03:28:49.592Z,95801.00
2023-03-17T03:29:49.619Z,95801.00
2023-03-17T03:30:49.776Z,95803.00
2023-03-17T03:31:49.703Z,95799.00
2023-03-17T03:32:49.773Z,95803.00
2023-03-17T03:33:49.737Z,95803.00
2023-03-17T03:34:48.770Z,95805.00
2023-03-17T03:35:48.853Z,95805.00
2023-03-17T03:36:48.817Z,95805.00
2023-03-17T03:37:49.882Z,95805.00
2023-03-17T03:38:48.875Z,95805.00
2023-03-17T03:39:49.898Z,95805.00
2023-03-17T03:40:49.937Z,95807.00
2023-03-17T03:41:49.956Z,95807.00
2023-03-17T03:42:49.991Z,95807.00
2023-03-17T03:43:50.050Z,95805.00
2023-03-17T03:44:49.077Z,95809.00
2023-03-17T03:45:50.121Z,95807.00
2023-03-17T03:46:49.224Z,95809.00
2023-03-17T03:47:49.190Z,95811.00
2023-03-17T03:48:50.219Z,95813.00
2023-03-17T03:49:50.262Z,95813.00
2023-03-17T03:50:50.292Z,95815.00
2023-03-17T03:51:50.332Z,95815.00
2023-03-17T03:52:50.344Z,95815.00
2023-03-17T03:53:50.407Z,95815.00
2023-03-17T03:54:50.424Z,95815.00
2023-03-17T03:55:50.425Z,95817.00
2023-03-17T03:56:50.474Z,95815.00
2023-03-17T03:57:50.500Z,95815.00
2023-03-17T03:58:50.527Z,95813.00
2023-03-17T03:59:50.570Z,95811.00
2023-03-17T04:00:50.611Z,95809.00
2023-03-17T04:01:49.634Z,95805.00
2023-03-17T04:02:50.716Z,95805.00
2023-03-17T04:03:50.696Z,95803.00
2023-03-17T04:04:49.739Z,95799.00
2023-03-17T04:05:50.767Z,95801.00
2023-03-17T04:06:50.774Z,95803.00
2023-03-17T04:07:50.801Z,95801.00
2023-03-17T04:08:50.856Z,95801.00
2023-03-17T04:09:50.897Z,95801.00
2023-03-17T04:10:50.911Z,95797.00
2023-03-17T04:11:50.985Z,95801.00
2023-03-17T04:12:50.013Z,95799.00
2023-03-17T04:13:51.037Z,95797.00
2023-03-17T04:14:51.058Z,95796.00
2023-03-17T04:15:51.143Z,95794.00
2023-03-17T04:16:50.102Z,95792.00
2023-03-17T04:17:51.147Z,95790.00
2023-03-17T04:18:51.271Z,95790.00
2023-03-17T04:19:51.187Z,95788.00
2023-03-17T04:20:51.214Z,95790.00
2023-03-17T04:21:53.541Z,95792.00
2023-03-17T04:22:50.248Z,95794.00
2023-03-17T04:23:51.226Z,95792.00
2023-03-17T04:24:51.223Z,95792.00
2023-03-17T04:25:51.247Z,95792.00
2023-03-17T04:26:51.219Z,95790.00
2023-03-17T04:27:51.238Z,95792.00
2023-03-17T04:28:51.228Z,95790.00
2023-03-17T04:29:51.198Z,95788.00
2023-03-17T04:30:51.199Z,95788.00
2023-03-17T04:31:51.266Z,95786.00
2023-03-17T04:32:51.276Z,95790.00
2023-03-17T04:33:51.191Z,95794.00
2023-03-17T04:34:51.151Z,95794.00
2023-03-17T04:35:51.165Z,95792.00
2023-03-17T04:36:51.140Z,95794.00
2023-03-17T04:37:50.142Z,95792.00
2023-03-17T04:38:50.136Z,95794.00
2023-03-17T04:39:50.129Z,95790.00
2023-03-17T04:40:50.135Z,95788.00
2023-03-17T04:41:50.141Z,95786.00
2023-03-17T04:42:51.112Z,95784.00
2023-03-17T04:43:50.103Z,95784.00
2023-03-17T04:44:51.111Z,95786.00
2023-03-17T04:45:50.125Z,95784.00
2023-03-17T04:46:50.148Z,95782.00
2023-03-17T04:47:50.214Z,95780.00
2023-03-17T04:48:51.269Z,95778.00
2023-03-17T04:49:50.321Z,95780.00
2023-03-17T04:50:51.384Z,95778.00
2023-03-17T04:51:51.439Z,95774.00
2023-03-17T04:52:51.532Z,95772.00
2023-03-17T04:53:51.583Z,95772.00
2023-03-17T04:54:51.612Z,95774.00
2023-03-17T04:55:50.661Z,95776.00
2023-03-17T04:56:51.696Z,95778.00
2023-03-17T04:57:51.788Z,95774.00
2023-03-17T04:58:50.825Z,95774.00
2023-03-17T04:59:50.892Z,95772.00
2023-03-17T05:00:51.950Z,95772.00
2023-03-17T05:01:52.030Z,95772.00
2023-03-17T05:02:52.060Z,95764.00
2023-03-17T05:03:52.125Z,95762.00
2023-03-17T05:04:52.164Z,95760.00
2023-03-17T05:05:52.215Z,95762.00
2023-03-17T05:06:51.284Z,95760.00
2023-03-17T05:07:52.363Z,95760.00
2023-03-17T05:08:52.413Z,95764.00
2023-03-17T05:09:51.480Z,95766.00
2023-03-17T05:10:51.577Z,95766.00
2023-03-17T05:11:52.600Z,95768.00
2023-03-17T05:12:51.667Z,95774.00
2023-03-17T05:13:51.746Z,95770.00
2023-03-17T05:14:52.776Z,95776.00
2023-03-17T05:15:51.829Z,95778.00
2023-03-17T05:16:53.001Z,95776.00
2023-03-17T05:17:52.999Z,95776.00
2023-03-17T05:18:53.001Z,95774.00
2023-03-17T05:19:53.107Z,95774.00
2023-03-17T05:20:52.169Z,95772.00
2023-03-17T05:21:53.200Z,95772.00
2023-03-17T05:22:53.259Z,95766.00
2023-03-17T05:23:55.036Z,95764.00
2023-03-17T05:24:53.332Z,95766.00
2023-03-17T05:25:53.368Z,95762.00
2023-03-17T05:26:53.316Z,95760.00
2023-03-17T05:27:53.304Z,95758.00
2023-03-17T05:28:52.309Z,95758.00
2023-03-17T05:29:52.321Z,95760.00
2023-03-17T05:30:52.363Z,95758.00
2023-03-17T05:31:53.267Z,95758.00
2023-03-17T05:32:53.302Z,95760.00
2023-03-17T05:33:53.251Z,95762.00
2023-03-17T05:34:53.268Z,95766.00
2023-03-17T05:35:52.427Z,95770.00
2023-03-17T05:36:53.233Z,95774.00
2023-03-17T05:37:53.221Z,95778.00
2023-03-17T05:38:52.234Z,95782.00
2023-03-17T05:39:53.209Z,95782.00
2023-03-17T05:40:53.214Z,95782.00
2023-03-17T05:41:52.194Z,95780.00
2023-03-17T05:42:53.186Z,95780.00
2023-03-17T05:43:53.176Z,95778.00
2023-03-17T05:44:53.182Z,95778.00
2023-03-17T05:45:53.251Z,95776.00
2023-03-17T05:46:52.192Z,95774.00
2023-03-17T05:47:52.160Z,95772.00
2023-03-17T05:48:53.181Z,95770.00
2023-03-17T05:49:53.267Z,95770.00
2023-03-17T05:50:53.304Z,95770.00
2023-03-17T05:51:52.385Z,95772.00
2023-03-17T05:52:53.449Z,95768.00
2023-03-17T05:53:53.493Z,95766.00
2023-03-17T05:54:52.572Z,95764.00
2023-03-17T05:55:52.625Z,95768.00
2023-03-17T05:56:52.693Z,95772.00
2023-03-17T05:57:54.344Z,95772.00
2023-03-17T05:58:53.798Z,95774.00
2023-03-17T05:59:53.855Z,95776.00
2023-03-17T06:00:53.922Z,95778.00
2023-03-17T06:01:54.007Z,95780.00
2023-03-17T06:02:54.038Z,95780.00
2023-03-17T06:03:54.109Z,95778.00
2023-03-17T06:04:53.181Z,95778.00
2023-03-17T06:05:54.230Z,95772.00
2023-03-17T06:06:53.329Z,95772.00
2023-03-17T06:07:56.463Z,95776.00
2023-03-17T06:08:54.336Z,95776.00
2023-03-17T06:09:54.346Z,95778.00
2023-03-17T06:10:54.334Z,95780.00
2023-03-17T06:11:54.308Z,95778.00
2023-03-17T06:12:54.292Z,95774.00
2023-03-17T06:13:54.300Z,95774.00
2023-03-17T06:14:53.333Z,95776.00
2023-03-17T06:15:54.362Z,95772.00
2023-03-17T06:16:54.280Z,95772.00
2023-03-17T06:17:54.290Z,95770.00
2023-03-17T06:18:54.264Z,95772.00
2023-03-17T06:19:54.268Z,95770.00
2023-03-17T06:20:54.254Z,95770.00
2023-03-17T06:21:53.226Z,95764.00
2023-03-17T06:23:03.790Z,95768.00
2023-03-17T06:23:54.234Z,95764.00
2023-03-17T06:24:56.069Z,95766.00
2023-03-17T06:25:54.237Z,95764.00
2023-03-17T06:26:54.209Z,95760.00
2023-03-17T06:27:53.194Z,95760.00
2023-03-17T06:28:54.191Z,95762.00
2023-03-17T06:29:54.174Z,95764.00
2023-03-17T06:30:54.233Z,95766.00
2023-03-17T06:31:54.161Z,95766.00
2023-03-17T06:32:54.167Z,95768.00
2023-03-17T06:33:54.177Z,95768.00
2023-03-17T06:34:54.149Z,95768.00
2023-03-17T06:35:54.175Z,95774.00
2023-03-17T06:36:54.161Z,95772.00
2023-03-17T06:37:54.153Z,95774.00
2023-03-17T06:38:53.125Z,95776.00
2023-03-17T06:39:53.123Z,95778.00
2023-03-17T06:40:54.164Z,95774.00
2023-03-17T06:41:54.150Z,95772.00
2023-03-17T06:42:54.136Z,95770.00
2023-03-17T06:43:54.122Z,95768.00
2023-03-17T06:44:54.223Z,95770.00
2023-03-17T06:45:54.790Z,95772.00
2023-03-17T06:46:53.099Z,95770.00
2023-03-17T06:47:54.074Z,95770.00
2023-03-17T06:48:54.127Z,95768.00
2023-03-17T06:50:54.411Z,95768.00
2023-03-17T06:51:53.112Z,95768.00
2023-03-17T06:52:54.535Z,95772.00
2023-03-17T06:53:53.152Z,95770.00
2023-03-17T06:54:53.135Z,95776.00
2023-03-17T06:55:53.713Z,95776.00
2023-03-17T06:56:54.360Z,95774.00
2023-03-17T06:57:54.176Z,95776.00
2023-03-17T06:58:54.671Z,95772.00
2023-03-17T06:59:54.139Z,95768.00
2023-03-17T07:00:54.321Z,95768.00
2023-03-17T07:01:54.351Z,95766.00
2023-03-17T07:02:54.183Z,95764.00
2023-03-17T07:03:54.183Z,95764.00
2023-03-17T07:04:54.246Z,95768.00
2023-03-17T07:05:53.236Z,95770.00
2023-03-17T07:06:53.210Z,95766.00
2023-03-17T07:07:54.272Z,95764.00
2023-03-17T07:08:54.328Z,95766.00
2023-03-17T07:09:53.383Z,95764.00
2023-03-17T07:10:54.487Z,95768.00
2023-03-17T07:11:54.429Z,95772.00
2023-03-17T07:12:54.467Z,95770.00
2023-03-17T07:13:54.449Z,95772.00
2023-03-17T07:14:54.498Z,95772.00
2023-03-17T07:15:55.463Z,95770.00
2023-03-17T07:16:54.496Z,95772.00
2023-03-17T07:17:54.513Z,95770.00
2023-03-17T07:18:53.568Z,95770.00
2023-03-17T07:19:53.629Z,95768.00
2023-03-17T07:20:54.729Z,95766.00
2023-03-17T07:21:54.770Z,95768.00
2023-03-17T07:22:54.838Z,95764.00
2023-03-17T07:23:54.839Z,95764.00
2023-03-17T07:24:54.883Z,95768.00
2023-03-17T07:25:54.933Z,95770.00
2023-03-17T07:26:53.963Z,95770.00
2023-03-17T07:27:53.983Z,95772.00
2023-03-17T07:28:55.062Z,95768.00
2023-03-17T07:29:55.052Z,95766.00
2023-03-17T07:30:54.095Z,95764.00
2023-03-17T07:31:55.199Z,95762.00
2023-03-17T07:33:57.303Z,95760.00
2023-03-17T07:35:55.139Z,95760.00
2023-03-17T07:36:54.118Z,95760.00
2023-03-17T07:42:54.076Z,95758.00
2023-03-17T07:44:55.062Z,95754.00
2023-03-17T07:47:55.037Z,95756.00
2023-03-17T07:48:55.018Z,95760.00
2023-03-17T07:52:55.004Z,95758.00
2023-03-17T07:54:54.989Z,95756.00
2023-03-17T07:55:55.434Z,95750.00
2023-03-17T07:58:53.963Z,95741.00
2023-03-17T07:59:54.981Z,95743.00
2023-03-17T08:00:54.969Z,95743.00
2023-03-17T08:04:54.927Z,95745.00
2023-03-17T08:07:54.948Z,95743.00
2023-03-17T08:14:53.846Z,95739.00
2023-03-17T08:19:54.832Z,95735.00
2023-03-17T08:21:53.830Z,95733.00
2023-03-17T08:22:54.795Z,95731.00
2023-03-17T08:23:54.805Z,95731.00
2023-03-17T08:28:54.794Z,95731.00
2023-03-17T08:30:54.855Z,95725.00
2023-03-17T08:31:54.795Z,95727.00
2023-03-17T08:33:54.727Z,95727.00
2023-03-17T08:39:55.098Z,95719.00
2023-03-17T08:42:55.255Z,95715.00
2023-03-17T08:45:55.446Z,95719.00
2023-03-17T08:46:55.516Z,95711.00
2023-03-17T08:47:55.532Z,95709.00
2023-03-17T08:48:55.576Z,95711.00
2023-03-17T08:49:55.672Z,95711.00
2023-03-17T08:51:55.779Z,95707.00
2023-03-17T08:52:55.831Z,95705.00
2023-03-17T08:53:55.881Z,95703.00
2023-03-17T08:54:55.937Z,95703.00
2023-03-17T08:55:55.992Z,95700.00
2023-03-17T08:56:56.074Z,95700.00
2023-03-17T08:57:56.142Z,95702.00
2023-03-17T09:00:56.244Z,95694.00
2023-03-17T09:01:56.428Z,95688.00
2023-03-17T09:02:20.044Z,95727.00
2023-03-17T09:02:56.398Z,95688.00
2023-03-17T09:03:55.406Z,95686.00
2023-03-17T09:04:56.419Z,95686.00
2023-03-17T09:05:55.471Z,95686.00
2023-03-17T09:07:03.208Z,95684.00
2023-03-17T09:07:56.518Z,95680.00
2023-03-17T09:08:55.704Z,95682.00
2023-03-17T09:09:56.441Z,95680.00
2023-03-17T09:10:55.446Z,95678.00
2023-03-17T09:11:56.462Z,95680.00
2023-03-17T09:12:56.427Z,95680.00
2023-03-17T09:13:17.629Z,95717.00
2023-03-17T09:13:55.482Z,95676.00
2023-03-17T09:14:56.405Z,95678.00
2023-03-17T09:15:56.492Z,95674.00
2023-03-17T09:16:56.431Z,95674.00
2023-03-17T09:17:56.400Z,95674.00
2023-03-17T09:18:56.387Z,95674.00
2023-03-17T09:19:55.381Z,95672.00
2023-03-17T09:20:56.383Z,95672.00
2023-03-17T09:21:55.366Z,95674.00
2023-03-17T09:22:56.360Z,95664.00
2023-03-17T09:23:55.370Z,95662.00
2023-03-17T09:24:56.340Z,95662.00
2023-03-17T09:25:56.361Z,95658.00
2023-03-17T09:26:56.340Z,95660.00
2023-03-17T09:27:56.327Z,95656.00
2023-03-17T09:28:56.336Z,95656.00
2023-03-17T09:29:56.323Z,95654.00
2023-03-17T09:30:56.319Z,95650.00
2023-03-17T09:31:40.338Z,95697.00
2023-03-17T09:31:56.298Z,95650.00
2023-03-17T09:32:56.372Z,95650.00
2023-03-17T09:33:56.297Z,95650.00
2023-03-17T09:35:56.314Z,95649.00
2023-03-17T09:36:19.923Z,95693.00
2023-03-17T09:37:56.280Z,95649.00
2023-03-17T09:38:56.336Z,95645.00
2023-03-17T09:39:56.411Z,95643.00
2023-03-17T09:40:55.957Z,95639.00
2023-03-17T09:41:56.502Z,95641.00
2023-03-17T09:42:56.591Z,95635.00
2023-03-17T09:43:56.634Z,95635.00
2023-03-17T09:44:56.704Z,95635.00
2023-03-17T09:45:56.712Z,95629.00
2023-03-17T09:46:56.800Z,95631.00
2023-03-17T09:47:56.712Z,95625.00
2023-03-17T09:48:56.732Z,95621.00
2023-03-17T09:49:55.807Z,95617.00
2023-03-17T09:50:56.988Z,95619.00
2023-03-17T09:51:56.877Z,95615.00
2023-03-17T09:52:56.878Z,95613.00
2023-03-17T09:53:55.889Z,95613.00
2023-03-17T09:54:55.917Z,95615.00
2023-03-17T09:55:57.527Z,95619.00
2023-03-17T09:56:56.961Z,95615.00
2023-03-17T09:57:57.040Z,95617.00
2023-03-17T09:58:56.060Z,95619.00
2023-03-17T09:59:57.063Z,95617.00
2023-03-17T10:00:57.206Z,95617.00
2023-03-17T10:01:57.169Z,95611.00
2023-03-17T10:02:57.138Z,95611.00
2023-03-17T10:03:57.154Z,95611.00
2023-03-17T10:04:56.225Z,95607.00
2023-03-17T10:05:56.272Z,95605.00
2023-03-17T10:06:57.210Z,95605.00
2023-03-17T10:07:57.256Z,95605.00
2023-03-17T10:08:56.309Z,95602.00
2023-03-17T10:09:06.300Z,95644.00
2023-03-17T10:09:57.369Z,95602.00
2023-03-17T10:10:57.432Z,95605.00
2023-03-17T10:11:25.415Z,95642.00
2023-03-17T10:11:57.462Z,95603.00
2023-03-17T10:12:26.120Z,95642.00
2023-03-17T10:12:57.600Z,95602.00
2023-03-17T10:13:25.284Z,95638.00
2023-03-17T10:13:56.568Z,95598.00
2023-03-17T10:14:26.497Z,95637.00
2023-03-17T10:14:57.611Z,95598.00
2023-03-17T10:15:26.926Z,95635.00
2023-03-17T10:15:57.672Z,95598.00
2023-03-17T10:16:57.661Z,95596.00
2023-03-17T10:17:56.670Z,95594.00
2023-03-17T10:18:56.704Z,95592.00
2023-03-17T10:19:57.693Z,95592.00
2023-03-17T10:20:57.760Z,95588.00
2023-03-17T10:21:57.727Z,95586.00
2023-03-17T10:22:57.780Z,95586.00
2023-03-17T10:23:57.780Z,95582.00
2023-03-17T10:24:57.756Z,95582.00
2023-03-17T10:25:57.771Z,95580.00
2023-03-17T10:26:57.778Z,95580.00
2023-03-17T10:27:57.756Z,95576.00
2023-03-17T10:28:57.790Z,95576.00
2023-03-17T10:29:57.812Z,95570.00
2023-03-17T10:30:57.821Z,95566.00
2023-03-17T10:31:58.729Z,95564.00
2023-03-17T10:32:57.941Z,95564.00
2023-03-17T10:33:56.862Z,95564.00
2023-03-17T10:34:57.899Z,95562.00
2023-03-17T10:35:57.952Z,95562.00
2023-03-17T10:36:57.925Z,95560.00
2023-03-17T10:38:13.480Z,95558.00
2023-03-17T10:38:57.962Z,95556.00
2023-03-17T10:39:56.903Z,95555.00
2023-03-17T10:40:57.914Z,95555.00
2023-03-17T10:41:57.898Z,95553.00
2023-03-17T10:42:20.854Z,95582.00
2023-03-17T10:42:57.887Z,95553.00
2023-03-17T10:43:20.424Z,95582.00
2023-03-17T10:43:57.904Z,95549.00
2023-03-17T10:44:56.919Z,95549.00
2023-03-17T10:45:57.896Z,95547.00
2023-03-17T10:46:58.053Z,95537.00
2023-03-17T10:47:57.847Z,95539.00
2023-03-17T10:48:56.904Z,95541.00
2023-03-17T10:49:57.845Z,95541.00
2023-03-17T10:50:56.828Z,95539.00
2023-03-17T10:51:57.957Z,95539.00
2023-03-17T10:52:57.848Z,95537.00
2023-03-17T10:53:56.826Z,95535.00
2023-03-17T10:54:56.827Z,95535.00
2023-03-17T10:55:57.798Z,95531.00
2023-03-17T10:56:59.145Z,95527.00
2023-03-17T10:57:57.785Z,95531.00
2023-03-17T10:58:57.808Z,95529.00
2023-03-17T10:59:56.862Z,95527.00
2023-03-17T11:00:57.938Z,95525.00
2023-03-17T11:01:57.930Z,95525.00
2023-03-17T11:02:57.965Z,95525.00
2023-03-17T11:03:57.053Z,95525.00
2023-03-17T11:04:57.059Z,95521.00
2023-03-17T11:05:58.100Z,95519.00
2023-03-17T11:06:58.153Z,95517.00
2023-03-17T11:07:57.134Z,95511.00
2023-03-17T11:08:58.154Z,95508.00
2023-03-17T11:09:58.186Z,95511.00
2023-03-17T11:10:58.199Z,95509.00
2023-03-17T11:11:58.248Z,95504.00
2023-03-17T11:12:58.272Z,95504.00
2023-03-17T11:13:58.270Z,95500.00
2023-03-17T11:14:58.314Z,95500.00
2023-03-17T11:15:58.414Z,95494.00
2023-03-17T11:16:57.534Z,95496.00
2023-03-17T11:17:57.363Z,95496.00
2023-03-17T11:18:57.371Z,95496.00
2023-03-17T11:19:57.445Z,95494.00
2023-03-17T11:20:57.421Z,95490.00
2023-03-17T11:21:58.432Z,95488.00
2023-03-17T11:22:58.432Z,95486.00
2023-03-17T11:23:57.484Z,95478.00
2023-03-17T11:24:58.535Z,95480.00
2023-03-17T11:25:58.448Z,95478.00
2023-03-17T11:26:58.442Z,95476.00
2023-03-17T11:27:58.486Z,95478.00
2023-03-17T11:28:58.444Z,95472.00
2023-03-17T11:29:58.496Z,95472.00
2023-03-17T11:30:58.464Z,95470.00
2023-03-17T11:31:57.662Z,95466.00
2023-03-17T11:32:58.546Z,95464.00
2023-03-17T11:33:58.475Z,95464.00
2023-03-17T11:34:58.508Z,95462.00
2023-03-17T11:35:58.596Z,95461.00
2023-03-17T11:38:57.500Z,95457.00
2023-03-17T11:40:26.091Z,95489.00
2023-03-17T11:41:59.025Z,95451.00
2023-03-17T11:45:58.688Z,95443.00
2023-03-17T11:47:59.975Z,95439.00
2023-03-17T11:48:58.637Z,95439.00
2023-03-17T11:50:00.483Z,95437.00
2023-03-17T11:50:58.599Z,95437.00
2023-03-17T11:51:57.600Z,95435.00
2023-03-17T11:52:58.630Z,95435.00
2023-03-17T11:53:26.222Z,95466.00
2023-03-17T11:53:58.592Z,95429.00
2023-03-17T11:54:59.692Z,95429.00
2023-03-17T11:55:58.605Z,95427.00
2023-03-17T11:56:58.630Z,95423.00
2023-03-17T11:57:58.664Z,95423.00
2023-03-17T11:58:57.680Z,95421.00
2023-03-17T11:59:58.736Z,95421.00
2023-03-17T12:00:58.752Z,95419.00
2023-03-17T12:01:58.736Z,95419.00
2023-03-17T12:02:58.778Z,95419.00
2023-03-17T12:03:57.983Z,95417.00
2023-03-17T12:04:58.835Z,95419.00
2023-03-17T12:05:58.854Z,95419.00
2023-03-17T12:06:58.879Z,95415.00
2023-03-17T12:07:58.957Z,95415.00
2023-03-17T12:08:58.988Z,95417.00
2023-03-17T12:09:58.983Z,95408.00
2023-03-17T12:10:11.446Z,95446.00
2023-03-17T12:10:59.020Z,95408.00
2023-03-17T12:11:59.049Z,95408.00
2023-03-17T12:12:59.089Z,95404.00
2023-03-17T12:13:59.112Z,95402.00
2023-03-17T12:14:59.145Z,95402.00
2023-03-17T12:15:59.225Z,95398.00
2023-03-17T12:16:59.226Z,95398.00
2023-03-17T12:17:58.256Z,95396.00
2023-03-17T12:18:59.279Z,95392.00
2023-03-17T12:19:59.343Z,95388.00
2023-03-17T12:20:59.361Z,95388.00
2023-03-17T12:21:59.387Z,95382.00
2023-03-17T12:22:59.453Z,95382.00
2023-03-17T12:23:59.479Z,95380.00
2023-03-17T12:24:59.503Z,95382.00
2023-03-17T12:25:59.569Z,95376.00
2023-03-17T12:26:59.603Z,95376.00
2023-03-17T12:27:59.657Z,95374.00
2023-03-17T12:28:59.671Z,95376.00
2023-03-17T12:29:35.589Z,95413.00
2023-03-17T12:29:59.811Z,95370.00